createdAt,value
2023-02-25T00:01:44.488Z,63.17
2023-02-25T00:04:15.831Z,63.61
2023-02-25T00:06:42.985Z,63.53
2023-02-25T00:09:11.380Z,62.82
2023-02-25T00:11:38.878Z,63.61
2023-02-25T00:14:06.060Z,63.63
2023-02-25T00:16:33.284Z,63.33
2023-02-25T00:19:00.366Z,63.51
2023-02-25T00:21:29.606Z,63.74
2023-02-25T00:24:04.496Z,63.59
2023-02-25T00:26:41.428Z,63.54
2023-02-25T00:29:08.578Z,63.81
2023-02-25T00:31:35.826Z,63.74
2023-02-25T00:34:03.041Z,63.53
2023-02-25T00:36:30.198Z,63.80
2023-02-25T00:38:58.372Z,63.16
2023-02-25T00:41:30.292Z,63.07
2023-02-25T00:44:01.487Z,63.09
2023-02-25T00:46:32.816Z,63.64
2023-02-25T00:49:01.296Z,63.13
2023-02-25T00:51:31.597Z,63.49
2023-02-25T00:53:59.854Z,62.97
2023-02-25T00:56:27.595Z,62.77
2023-02-25T00:58:55.106Z,62.43
2023-02-25T01:01:33.453Z,62.36
2023-02-25T01:04:01.257Z,62.49
2023-02-25T01:06:30.337Z,62.27
2023-02-25T01:08:59.727Z,62.19
2023-02-25T01:11:32.016Z,62.27
2023-02-25T01:14:22.572Z,62.07
2023-02-25T01:16:51.788Z,61.68
2023-02-25T01:19:23.065Z,61.46
2023-02-25T01:21:57.345Z,61.37
2023-02-25T01:24:32.605Z,61.17
2023-02-25T01:27:03.352Z,61.34
2023-02-25T01:29:39.238Z,61.52
2023-02-25T01:32:12.068Z,60.81
2023-02-25T01:34:40.174Z,60.74
2023-02-25T01:37:09.628Z,60.18
2023-02-25T01:39:41.110Z,59.70
2023-02-25T01:42:16.730Z,59.63
2023-02-25T01:45:22.729Z,59.83
2023-02-25T01:48:13.927Z,60.55
2023-02-25T01:50:48.614Z,60.54
2023-02-25T01:53:21.857Z,60.54
2023-02-25T01:55:49.568Z,59.69
2023-02-25T01:58:18.612Z,60.38
2023-02-25T02:00:46.105Z,60.82
2023-02-25T02:03:17.002Z,60.10
2023-02-25T02:06:06.481Z,59.74
2023-02-25T02:08:34.823Z,59.21
2023-02-25T02:11:02.953Z,59.23
2023-02-25T02:13:34.534Z,59.20
2023-02-25T02:16:36.036Z,58.62
2023-02-25T02:19:37.098Z,58.71
2023-02-25T02:22:25.739Z,58.50
2023-02-25T02:25:27.917Z,59.45
2023-02-25T02:27:57.968Z,58.77
2023-02-25T02:30:38.765Z,59.72
2023-02-25T02:33:12.824Z,59.99
2023-02-25T02:36:03.313Z,60.09
2023-02-25T02:38:44.591Z,60.38
2023-02-25T02:41:34.117Z,59.60
2023-02-25T02:44:18.226Z,59.56
2023-02-25T02:47:12.142Z,59.41
2023-02-25T02:50:01.015Z,60.35
2023-02-25T02:52:32.331Z,61.66
2023-02-25T02:55:10.509Z,62.26
2023-02-25T02:57:41.338Z,61.98
2023-02-25T03:00:17.831Z,62.37
2023-02-25T03:03:02.837Z,62.53
2023-02-25T03:05:34.435Z,62.30
2023-02-25T03:08:14.482Z,62.19
2023-02-25T03:10:41.675Z,61.84
2023-02-25T03:13:09.130Z,62.35
2023-02-25T03:15:40.169Z,62.31
2023-02-25T03:18:32.651Z,62.08
2023-02-25T03:21:04.424Z,62.29
2023-02-25T03:23:33.893Z,62.64
2023-02-25T03:26:27.038Z,62.74
2023-02-25T03:28:59.468Z,62.50
2023-02-25T03:31:42.517Z,62.13
2023-02-25T03:34:20.416Z,62.40
2023-02-25T03:36:53.778Z,62.08
2023-02-25T03:39:31.410Z,62.45
2023-02-25T03:42:02.461Z,62.17
2023-02-25T03:44:36.365Z,62.29
2023-02-25T03:47:06.105Z,61.93
2023-02-25T03:49:47.809Z,62.84
2023-02-25T03:52:20.791Z,62.27
2023-02-25T03:54:55.376Z,62.06
2023-02-25T03:57:26.488Z,62.26
2023-02-25T03:59:56.363Z,62.96
2023-02-25T04:02:33.956Z,62.65
2023-02-25T04:05:01.512Z,62.53
2023-02-25T04:07:29.733Z,62.89
2023-02-25T04:09:59.355Z,62.34
2023-02-25T04:12:27.591Z,62.57
2023-02-25T04:14:55.179Z,62.42
2023-02-25T04:17:22.350Z,62.82
2023-02-25T04:19:49.581Z,62.77
2023-02-25T04:22:16.863Z,62.91
2023-02-25T04:24:44.005Z,63.43
2023-02-25T04:27:15.576Z,64.32
2023-02-25T04:29:45.020Z,65.26
2023-02-25T04:32:12.550Z,65.94
2023-02-25T04:34:39.678Z,66.12
2023-02-25T04:37:09.252Z,66.44
2023-02-25T04:39:37.141Z,66.49
2023-02-25T04:42:04.655Z,66.32
2023-02-25T04:44:31.780Z,66.40
2023-02-25T04:46:58.847Z,66.60
2023-02-25T04:49:25.923Z,67.44
2023-02-25T04:51:53.203Z,67.38
2023-02-25T04:54:21.599Z,67.26
2023-02-25T04:56:49.101Z,67.41
2023-02-25T04:59:16.670Z,67.25
2023-02-25T05:01:44.026Z,66.51
2023-02-25T05:04:11.327Z,66.79
2023-02-25T05:06:39.312Z,66.87
2023-02-25T05:09:08.199Z,67.13
2023-02-25T05:11:36.471Z,67.52
2023-02-25T05:14:03.693Z,67.30
2023-02-25T05:16:30.866Z,67.34
2023-02-25T05:18:58.162Z,66.71
2023-02-25T05:21:27.061Z,66.38
2023-02-25T05:23:54.542Z,66.35
2023-02-25T05:26:25.018Z,66.98
2023-02-25T05:28:55.764Z,66.81
2023-02-25T05:31:25.105Z,66.45
2023-02-25T05:33:52.904Z,66.94
2023-02-25T05:36:20.526Z,67.52
2023-02-25T05:38:48.036Z,67.40
2023-02-25T05:41:15.823Z,66.96
2023-02-25T05:43:43.112Z,66.62
2023-02-25T05:46:13.914Z,66.64
2023-02-25T05:48:46.000Z,66.89
2023-02-25T05:51:22.395Z,67.10
2023-02-25T05:53:51.695Z,66.91
2023-02-25T05:56:23.277Z,66.85
2023-02-25T05:58:51.069Z,66.89
2023-02-25T06:01:27.776Z,66.64
2023-02-25T06:03:58.795Z,66.64
2023-02-25T06:06:31.638Z,67.08
2023-02-25T06:08:59.730Z,66.04
2023-02-25T06:11:30.349Z,66.19
2023-02-25T06:13:59.053Z,65.69
2023-02-25T06:16:32.680Z,65.68
2023-02-25T06:19:01.479Z,66.57
2023-02-25T06:21:29.627Z,66.22
2023-02-25T06:23:56.783Z,66.56
2023-02-25T06:26:24.300Z,66.33
2023-02-25T06:28:51.665Z,66.29
2023-02-25T06:31:21.244Z,65.99
2023-02-25T06:33:50.752Z,66.24
2023-02-25T06:36:21.693Z,65.75
2023-02-25T06:38:49.376Z,66.12
2023-02-25T06:41:21.013Z,66.29
2023-02-25T06:43:52.225Z,65.66
2023-02-25T06:46:25.475Z,65.27
2023-02-25T06:48:54.073Z,65.69
2023-02-25T06:51:22.016Z,65.74
2023-02-25T06:53:49.849Z,65.37
2023-02-25T06:56:20.366Z,65.38
2023-02-25T06:58:48.109Z,65.49
2023-02-25T07:01:17.629Z,65.79
2023-02-25T07:03:44.948Z,65.59
2023-02-25T07:06:15.994Z,65.66
2023-02-25T07:08:43.276Z,65.33
2023-02-25T07:11:14.919Z,65.39
2023-02-25T07:13:43.406Z,65.55
2023-02-25T07:16:15.216Z,65.45
2023-02-25T07:18:43.484Z,65.59
2023-02-25T07:21:14.801Z,65.66
2023-02-25T07:23:42.837Z,65.56
2023-02-25T07:26:13.389Z,65.35
2023-02-25T07:28:41.524Z,65.37
2023-02-25T07:31:15.958Z,65.10
2023-02-25T07:33:43.816Z,64.52
2023-02-25T07:36:12.564Z,64.73
2023-02-25T07:38:40.373Z,64.77
2023-02-25T07:41:10.240Z,64.63
2023-02-25T07:43:37.854Z,64.30
2023-02-25T07:46:05.249Z,64.41
2023-02-25T07:48:33.054Z,63.53
2023-02-25T07:51:19.808Z,63.76
2023-02-25T07:53:49.334Z,63.99
2023-02-25T07:56:18.331Z,63.27
2023-02-25T07:58:52.713Z,63.32
2023-02-25T08:02:17.561Z,64.04
2023-02-25T08:04:44.876Z,64.08
2023-02-25T08:07:12.111Z,63.96
2023-02-25T08:09:39.582Z,63.76
2023-02-25T08:12:06.770Z,63.71
2023-02-25T08:14:34.331Z,64.29
2023-02-25T08:17:01.985Z,63.80
2023-02-25T08:19:29.674Z,64.01
2023-02-25T08:21:56.758Z,63.43
2023-02-25T08:24:24.238Z,63.23
2023-02-25T08:26:51.373Z,62.94
2023-02-25T08:29:18.695Z,63.66
2023-02-25T08:31:47.105Z,63.39
2023-02-25T08:34:14.513Z,63.89
2023-02-25T08:36:41.705Z,63.70
2023-02-25T08:39:10.658Z,63.71
2023-02-25T08:41:38.353Z,63.33
2023-02-25T08:44:05.858Z,62.92
2023-02-25T08:46:35.175Z,62.48
2023-02-25T08:49:02.890Z,62.06
2023-02-25T08:51:34.863Z,62.49
2023-02-25T08:54:09.511Z,61.77
2023-02-25T08:56:37.845Z,62.40
2023-02-25T08:59:05.543Z,61.34
2023-02-25T09:01:44.992Z,61.97
2023-02-25T09:04:14.508Z,61.59
2023-02-25T09:06:41.751Z,61.43
2023-02-25T09:09:09.621Z,62.24
2023-02-25T09:11:36.740Z,62.86
2023-02-25T09:14:03.946Z,62.15
2023-02-25T09:16:31.553Z,61.57
2023-02-25T09:18:58.866Z,61.82
2023-02-25T09:21:26.156Z,61.77
2023-02-25T09:23:53.625Z,61.44
2023-02-25T09:26:22.625Z,60.43
2023-02-25T09:28:50.160Z,61.02
2023-02-25T09:31:18.467Z,61.72
2023-02-25T09:33:46.285Z,61.94
2023-02-25T09:36:16.861Z,61.70
2023-02-25T09:38:46.600Z,62.09
2023-02-25T09:41:36.145Z,61.81
2023-02-25T09:44:16.306Z,61.77
2023-02-25T09:46:53.004Z,61.85
2023-02-25T09:50:03.372Z,61.23
2023-02-25T09:52:45.757Z,61.14
2023-02-25T09:55:28.960Z,61.83
2023-02-25T09:58:12.530Z,61.03
2023-02-25T10:01:12.044Z,60.90
2023-02-25T10:04:08.608Z,60.29
2023-02-25T10:06:46.968Z,60.77
2023-02-25T10:09:50.376Z,61.66
2023-02-25T10:12:51.081Z,61.97
2023-02-25T10:15:52.791Z,61.89
2023-02-25T10:18:33.553Z,61.25
2023-02-25T10:21:18.814Z,61.31
2023-02-25T10:24:38.783Z,62.22
2023-02-25T10:27:22.141Z,62.06
2023-02-25T10:29:58.295Z,61.73
2023-02-25T10:32:31.138Z,61.91
2023-02-25T10:35:05.618Z,62.15
2023-02-25T10:37:36.053Z,61.52
2023-02-25T10:40:10.976Z,62.13
2023-02-25T10:42:38.849Z,62.35
2023-02-25T10:45:14.868Z,62.26
2023-02-25T10:47:46.858Z,62.49
2023-02-25T10:50:38.865Z,62.54
2023-02-25T10:53:19.019Z,63.02
2023-02-25T10:55:52.187Z,62.82
2023-02-25T10:58:37.630Z,62.40
2023-02-25T11:01:14.933Z,61.73
2023-02-25T11:04:00.027Z,61.15
2023-02-25T11:06:35.499Z,61.14
2023-02-25T11:09:10.567Z,61.75
2023-02-25T11:11:38.601Z,61.82
2023-02-25T11:14:14.672Z,60.21
2023-02-25T11:16:44.386Z,60.94
2023-02-25T11:19:30.209Z,60.41
2023-02-25T11:21:58.710Z,60.43
2023-02-25T11:24:32.109Z,60.05
2023-02-25T11:27:03.959Z,60.00
2023-02-25T11:29:38.452Z,60.08
2023-02-25T11:32:16.166Z,59.49
2023-02-25T11:34:55.811Z,60.32
2023-02-25T11:37:44.568Z,60.12
2023-02-25T11:40:25.653Z,60.47
2023-02-25T11:43:06.314Z,59.89
2023-02-25T11:45:51.899Z,58.62
2023-02-25T11:48:29.887Z,59.17
2023-02-25T11:51:15.170Z,58.36
2023-02-25T11:54:01.236Z,59.28
2023-02-25T11:56:37.536Z,58.55
2023-02-25T11:59:26.171Z,57.63
2023-02-25T12:02:20.728Z,58.16
2023-02-25T12:05:00.074Z,57.86
2023-02-25T12:08:15.933Z,58.50
2023-02-25T12:10:55.829Z,57.86
2023-02-25T12:14:03.613Z,57.58
2023-02-25T12:16:45.895Z,57.32
2023-02-25T12:19:58.990Z,56.43
2023-02-25T12:23:04.187Z,54.59
2023-02-25T12:26:03.989Z,55.54
2023-02-25T12:29:12.119Z,56.42
2023-02-25T12:32:16.198Z,56.34
2023-02-25T12:35:16.869Z,56.75
2023-02-25T12:38:37.674Z,56.83
2023-02-25T12:41:59.213Z,55.90
2023-02-25T12:45:01.322Z,56.22
2023-02-25T12:48:15.012Z,55.18
2023-02-25T12:51:06.957Z,56.29
2023-02-25T12:54:28.399Z,57.69
2023-02-25T12:57:18.377Z,56.82
2023-02-25T13:00:30.173Z,56.65
2023-02-25T13:03:25.688Z,56.21
2023-02-25T13:06:30.607Z,57.94
2023-02-25T13:09:36.393Z,59.27
2023-02-25T13:12:36.097Z,57.98
2023-02-25T13:15:14.349Z,58.14
2023-02-25T13:17:53.553Z,58.50
2023-02-25T13:20:32.569Z,58.30
2023-02-25T13:23:17.968Z,58.75
2023-02-25T13:25:57.278Z,59.17
2023-02-25T13:29:11.730Z,59.29
2023-02-25T13:31:56.075Z,59.39
2023-02-25T13:34:42.986Z,59.89
2023-02-25T13:37:38.057Z,60.56
2023-02-25T13:40:55.131Z,59.35
2023-02-25T13:43:51.164Z,58.93
2023-02-25T13:47:04.185Z,58.55
2023-02-25T13:50:19.180Z,57.95
2023-02-25T13:53:27.697Z,56.25
2023-02-25T13:56:15.339Z,55.80
2023-02-25T13:59:22.631Z,55.68
2023-02-25T14:02:27.199Z,55.67
2023-02-25T14:05:35.739Z,55.60
2023-02-25T14:08:34.783Z,55.49
2023-02-25T14:11:46.456Z,56.38
2023-02-25T14:14:28.712Z,57.53
2023-02-25T14:17:20.244Z,57.60
2023-02-25T14:20:21.258Z,58.24
2023-02-25T14:23:04.252Z,59.70
2023-02-25T14:25:49.429Z,60.52
2023-02-25T14:28:25.292Z,59.74
2023-02-25T14:32:08.292Z,60.67
2023-02-25T14:35:10.466Z,61.29
2023-02-25T14:38:03.225Z,63.04
2023-02-25T14:41:27.381Z,62.67
2023-02-25T14:44:01.651Z,62.34
2023-02-25T14:46:57.366Z,62.22
2023-02-25T14:49:52.551Z,61.62
2023-02-25T14:52:28.433Z,62.22
2023-02-25T14:55:33.261Z,62.15
2023-02-25T14:58:09.303Z,62.76
2023-02-25T15:01:34.263Z,62.96
2023-02-25T15:04:53.889Z,62.29
2023-02-25T15:07:52.933Z,62.19
2023-02-25T15:10:55.464Z,61.70
2023-02-25T15:13:36.616Z,61.15
2023-02-25T15:16:45.360Z,61.93
2023-02-25T15:19:37.996Z,61.45
2023-02-25T15:22:14.279Z,61.37
2023-02-25T15:24:42.905Z,61.01
2023-02-25T15:27:45.894Z,61.79
2023-02-25T15:30:24.608Z,61.86
2023-02-25T15:33:27.402Z,62.46
2023-02-25T15:35:58.934Z,62.48
2023-02-25T15:38:50.426Z,62.89
2023-02-25T15:41:29.840Z,62.37
2023-02-25T15:44:09.275Z,61.43
2023-02-25T15:46:36.684Z,61.41
2023-02-25T15:49:28.130Z,61.21
2023-02-25T15:52:04.190Z,61.63
2023-02-25T15:54:31.704Z,62.11
2023-02-25T15:57:22.972Z,64.01
2023-02-25T15:59:57.817Z,64.81
2023-02-25T16:02:30.751Z,64.84
2023-02-25T16:05:00.096Z,65.54
2023-02-25T16:07:36.149Z,65.32
2023-02-25T16:10:32.779Z,65.26
2023-02-25T16:13:01.730Z,65.19
2023-02-25T16:15:45.199Z,65.62
2023-02-25T16:18:42.116Z,64.89
2023-02-25T16:21:39.242Z,64.59
2023-02-25T16:24:12.018Z,64.84
2023-02-25T16:27:00.904Z,64.59
2023-02-25T16:29:47.753Z,64.44
2023-02-25T16:32:39.250Z,64.25
2023-02-25T16:35:32.725Z,64.13
2023-02-25T16:38:20.366Z,64.25
2023-02-25T16:40:48.759Z,64.29
2023-02-25T16:43:41.645Z,63.56
2023-02-25T16:46:17.182Z,63.62
2023-02-25T16:48:59.710Z,63.27
2023-02-25T16:51:36.398Z,62.81
2023-02-25T16:54:39.620Z,63.08
2023-02-25T16:57:10.095Z,62.87
2023-02-25T16:59:39.030Z,63.38
2023-02-25T17:02:15.304Z,63.33
2023-02-25T17:04:51.709Z,63.55
2023-02-25T17:07:31.703Z,63.37
2023-02-25T17:10:04.907Z,62.86
2023-02-25T17:12:40.895Z,63.20
2023-02-25T17:15:22.570Z,62.73
2023-02-25T17:18:33.115Z,62.69
2023-02-25T17:21:46.447Z,63.24
2023-02-25T17:24:18.651Z,62.41
2023-02-25T17:26:50.474Z,62.25
2023-02-25T17:29:18.935Z,62.31
2023-02-25T17:31:55.924Z,61.43
2023-02-25T17:34:33.164Z,61.10
2023-02-25T17:37:07.092Z,60.83
2023-02-25T17:39:35.547Z,61.39
2023-02-25T17:42:02.838Z,61.08
2023-02-25T17:44:39.229Z,61.19
2023-02-25T17:47:10.241Z,61.55
2023-02-25T17:49:38.420Z,61.34
2023-02-25T17:52:23.956Z,61.70
2023-02-25T17:55:05.863Z,61.64
2023-02-25T17:57:34.155Z,62.42
2023-02-25T18:00:26.160Z,61.77
2023-02-25T18:03:21.284Z,62.29
2023-02-25T18:06:06.446Z,62.59
2023-02-25T18:08:53.328Z,62.40
2023-02-25T18:11:37.709Z,62.59
2023-02-25T18:14:44.281Z,62.02
2023-02-25T18:17:14.742Z,62.62
2023-02-25T18:19:46.114Z,62.43
2023-02-25T18:22:40.146Z,61.97
2023-02-25T18:26:25.347Z,62.17
2023-02-25T18:28:55.613Z,61.90
2023-02-25T18:31:23.334Z,61.84
2023-02-25T18:33:50.608Z,61.92
2023-02-25T18:36:28.217Z,62.00
2023-02-25T18:39:01.870Z,62.07
2023-02-25T18:41:29.189Z,62.49
2023-02-25T18:43:57.749Z,62.62
2023-02-25T18:46:25.261Z,62.96
2023-02-25T18:48:52.716Z,62.69
2023-02-25T18:51:19.890Z,62.81
2023-02-25T18:53:47.145Z,63.13
2023-02-25T18:56:17.661Z,63.07
2023-02-25T18:58:45.505Z,62.70
2023-02-25T19:01:25.288Z,63.04
2023-02-25T19:03:53.938Z,63.64
2023-02-25T19:06:21.146Z,64.48
2023-02-25T19:08:48.295Z,64.40
2023-02-25T19:11:30.802Z,64.65
2023-02-25T19:13:58.100Z,64.55
2023-02-25T19:16:25.600Z,64.41
2023-02-25T19:18:53.038Z,64.47
2023-02-25T19:21:21.914Z,64.58
2023-02-25T19:23:53.691Z,64.68
2023-02-25T19:26:21.571Z,64.26
2023-02-25T19:28:48.926Z,64.68
2023-02-25T19:31:17.882Z,64.50
2023-02-25T19:33:45.894Z,64.39
2023-02-25T19:36:13.046Z,64.03
2023-02-25T19:38:40.310Z,63.76
2023-02-25T19:41:07.791Z,64.13
2023-02-25T19:43:35.325Z,64.80
2023-02-25T19:46:03.033Z,64.32
2023-02-25T19:48:30.320Z,64.37
2023-02-25T19:50:57.668Z,63.70
2023-02-25T19:53:24.964Z,64.19
2023-02-25T19:55:57.464Z,64.21
2023-02-25T19:58:24.862Z,64.27
2023-02-25T20:00:52.238Z,64.39
2023-02-25T20:03:19.587Z,64.57
2023-02-25T20:05:46.843Z,64.58
2023-02-25T20:08:14.013Z,64.77
2023-02-25T20:10:44.345Z,64.79
2023-02-25T20:13:11.432Z,65.13
2023-02-25T20:15:38.756Z,64.79
2023-02-25T20:18:06.018Z,64.98
2023-02-25T20:20:33.310Z,64.59
2023-02-25T20:23:00.445Z,64.43
2023-02-25T20:25:27.739Z,64.81
2023-02-25T20:27:54.886Z,65.01
2023-02-25T20:30:23.135Z,65.60
2023-02-25T20:32:50.908Z,65.71
2023-02-25T20:35:22.834Z,65.85
2023-02-25T20:38:11.086Z,65.72
2023-02-25T20:40:38.428Z,66.13
2023-02-25T20:43:05.972Z,65.12
2023-02-25T20:45:34.114Z,64.90
2023-02-25T20:48:01.660Z,65.33
2023-02-25T20:50:29.566Z,65.50
2023-02-25T20:52:56.962Z,65.39
2023-02-25T20:55:24.346Z,65.28
2023-02-25T20:57:51.519Z,65.87
2023-02-25T21:00:20.606Z,65.60
2023-02-25T21:02:47.811Z,65.64
2023-02-25T21:05:15.081Z,65.33
2023-02-25T21:07:42.264Z,65.48
2023-02-25T21:10:11.005Z,65.00
2023-02-25T21:12:38.208Z,64.79
2023-02-25T21:15:06.128Z,64.34
2023-02-25T21:17:33.354Z,64.70
2023-02-25T21:20:00.559Z,65.24
2023-02-25T21:22:27.654Z,64.31
2023-02-25T21:24:54.735Z,63.77
2023-02-25T21:27:23.874Z,63.70
2023-02-25T21:29:51.195Z,64.82
2023-02-25T21:32:18.416Z,64.41
2023-02-25T21:34:45.803Z,64.79
2023-02-25T21:37:13.118Z,65.01
2023-02-25T21:39:43.387Z,64.99
2023-02-25T21:42:10.692Z,65.07
2023-02-25T21:44:37.917Z,65.47
2023-02-25T21:47:05.130Z,64.91
2023-02-25T21:49:32.690Z,64.57
2023-02-25T21:51:59.909Z,64.99
2023-02-25T21:54:27.432Z,64.99
2023-02-25T21:56:54.558Z,65.15
2023-02-25T21:59:23.344Z,65.29
2023-02-25T22:01:50.869Z,65.20
2023-02-25T22:04:18.231Z,65.19
2023-02-25T22:06:48.858Z,65.47
2023-02-25T22:09:18.164Z,66.16
2023-02-25T22:11:45.609Z,65.95
2023-02-25T22:14:13.056Z,66.20
2023-02-25T22:16:41.015Z,65.55
2023-02-25T22:19:08.303Z,65.60
2023-02-25T22:21:36.212Z,65.32
2023-02-25T22:24:05.431Z,65.59
2023-02-25T22:26:35.527Z,65.47
2023-02-25T22:29:09.262Z,65.83
2023-02-25T22:31:46.278Z,65.46
2023-02-25T22:34:13.598Z,65.64
2023-02-25T22:36:40.726Z,65.48
2023-02-25T22:39:09.478Z,65.41
2023-02-25T22:41:38.260Z,65.26
2023-02-25T22:44:06.208Z,65.55
2023-02-25T22:46:36.869Z,65.35
2023-02-25T22:49:06.756Z,65.04
2023-02-25T22:51:37.036Z,65.19
2023-02-25T22:54:04.854Z,65.26
2023-02-25T22:56:32.561Z,65.12
2023-02-25T22:59:00.116Z,65.08
2023-02-25T23:01:27.882Z,64.95
2023-02-25T23:03:56.924Z,64.82
2023-02-25T23:06:42.184Z,65.09
2023-02-25T23:09:10.872Z,65.03
2023-02-25T23:11:41.589Z,65.15
2023-02-25T23:14:08.739Z,65.00
2023-02-25T23:16:45.164Z,65.41
2023-02-25T23:19:18.375Z,65.17
2023-02-25T23:21:46.328Z,65.50
2023-02-25T23:24:16.507Z,65.17
2023-02-25T23:26:45.203Z,65.13
2023-02-25T23:29:12.772Z,64.89
2023-02-25T23:31:47.635Z,64.51
2023-02-25T23:34:20.991Z,63.88
2023-02-25T23:36:48.469Z,64.01
2023-02-25T23:39:16.625Z,64.41
2023-02-25T23:41:44.299Z,65.15
2023-02-25T23:44:13.366Z,64.43
2023-02-25T23:46:43.134Z,64.57
2023-02-25T23:49:14.517Z,65.06
2023-02-25T23:51:44.823Z,64.70
2023-02-25T23:54:17.093Z,64.58
2023-02-25T23:56:44.894Z,65.36
2023-02-25T23:59:12.649Z,65.16
